sensor_id;sensor_type;location;lat;lon;timestamp;pressure;altitude;pressure_sealevel;temperature;humidity
60852;BME280;48553;50.766;2.900;2024-02-26T00:01:04;98573.56;;;6.51;100.00
60852;BME280;48553;50.766;2.900;2024-02-26T00:04:04;98589.09;;;6.51;100.00
60852;BME280;48553;50.766;2.900;2024-02-26T00:07:05;98581.28;;;6.49;100.00
60852;BME280;48553;50.766;2.900;2024-02-26T00:10:06;98582.81;;;6.46;100.00
60852;BME280;48553;50.766;2.900;2024-02-26T00:13:06;98577.75;;;6.45;100.00
60852;BME280;48553;50.766;2.900;2024-02-26T00:16:07;98592.91;;;6.46;100.00
60852;BME280;48553;50.766;2.900;2024-02-26T00:19:07;98591.75;;;6.47;100.00
60852;BME280;48553;50.766;2.900;2024-02-26T00:22:08;98587.03;;;6.44;100.00
60852;BME280;48553;50.766;2.900;2024-02-26T00:25:08;98582.38;;;6.44;100.00
60852;BME280;48553;50.766;2.900;2024-02-26T00:28:10;98578.09;;;6.43;100.00
60852;BME280;48553;50.766;2.900;2024-02-26T00:31:10;98572.66;;;6.43;100.00
60852;BME280;48553;50.766;2.900;2024-02-26T00:34:11;98573.78;;;6.42;100.00
60852;BME280;48553;50.766;2.900;2024-02-26T00:37:12;98583.91;;;6.42;100.00
60852;BME280;48553;50.766;2.900;2024-02-26T00:40:12;98576.50;;;6.42;100.00
60852;BME280;48553;50.766;2.900;2024-02-26T00:43:13;98581.53;;;6.40;100.00
60852;BME280;48553;50.766;2.900;2024-02-26T00:46:13;98573.38;;;6.40;100.00
60852;BME280;48553;50.766;2.900;2024-02-26T00:49:14;98583.91;;;6.42;100.00
60852;BME280;48553;50.766;2.900;2024-02-26T00:52:14;98588.13;;;6.39;100.00
60852;BME280;48553;50.766;2.900;2024-02-26T00:55:15;98573.31;;;6.37;100.00
60852;BME280;48553;50.766;2.900;2024-02-26T00:58:15;98584.19;;;6.37;100.00
60852;BME280;48553;50.766;2.900;2024-02-26T01:01:17;98583.00;;;6.34;100.00
60852;BME280;48553;50.766;2.900;2024-02-26T01:04:17;98590.00;;;6.35;100.00
60852;BME280;48553;50.766;2.900;2024-02-26T01:07:19;98587.66;;;6.34;100.00
60852;BME280;48553;50.766;2.900;2024-02-26T01:10:19;98579.06;;;6.32;100.00
60852;BME280;48553;50.766;2.900;2024-02-26T01:13:20;98578.69;;;6.33;100.00
60852;BME280;48553;50.766;2.900;2024-02-26T01:16:20;98586.41;;;6.31;100.00
60852;BME280;48553;50.766;2.900;2024-02-26T01:19:21;98587.56;;;6.30;100.00
60852;BME280;48553;50.766;2.900;2024-02-26T01:22:21;98590.72;;;6.32;100.00
60852;BME280;48553;50.766;2.900;2024-02-26T01:25:22;98593.44;;;6.32;100.00
60852;BME280;48553;50.766;2.900;2024-02-26T01:28:22;98605.44;;;6.31;100.00
60852;BME280;48553;50.766;2.900;2024-02-26T01:31:23;98606.97;;;6.28;100.00
60852;BME280;48553;50.766;2.900;2024-02-26T01:34:23;98615.50;;;6.27;100.00
60852;BME280;48553;50.766;2.900;2024-02-26T01:37:23;98608.13;;;6.27;100.00
60852;BME280;48553;50.766;2.900;2024-02-26T01:40:27;98614.34;;;6.28;100.00
60852;BME280;48553;50.766;2.900;2024-02-26T01:43:28;98614.69;;;6.26;100.00
60852;BME280;48553;50.766;2.900;2024-02-26T01:46:29;98620.94;;;6.27;100.00
60852;BME280;48553;50.766;2.900;2024-02-26T01:49:30;98623.66;;;6.27;100.00
60852;BME280;48553;50.766;2.900;2024-02-26T01:52:30;98628.66;;;6.25;100.00
60852;BME280;48553;50.766;2.900;2024-02-26T01:55:31;98631.41;;;6.25;100.00
60852;BME280;48553;50.766;2.900;2024-02-26T01:58:32;98619.69;;;6.24;100.00
60852;BME280;48553;50.766;2.900;2024-02-26T02:01:34;98628.66;;;6.25;100.00
60852;BME280;48553;50.766;2.900;2024-02-26T02:04:36;98633.25;;;6.21;100.00
60852;BME280;48553;50.766;2.900;2024-02-26T02:07:36;98623.50;;;6.20;100.00
60852;BME280;48553;50.766;2.900;2024-02-26T02:10:38;98620.78;;;6.20;100.00
60852;BME280;48553;50.766;2.900;2024-02-26T02:13:38;98633.25;;;6.21;100.00
60852;BME280;48553;50.766;2.900;2024-02-26T02:16:39;98626.59;;;6.18;100.00
60852;BME280;48553;50.766;2.900;2024-02-26T02:19:39;98626.59;;;6.18;100.00
60852;BME280;48553;50.766;2.900;2024-02-26T02:22:39;98626.59;;;6.18;100.00
60852;BME280;48553;50.766;2.900;2024-02-26T02:25:40;98624.66;;;6.19;100.00
60852;BME280;48553;50.766;2.900;2024-02-26T02:28:41;98631.97;;;6.15;100.00
60852;BME280;48553;50.766;2.900;2024-02-26T02:31:41;98626.50;;;6.15;100.00
60852;BME280;48553;50.766;2.900;2024-02-26T02:34:42;98630.41;;;6.14;100.00
60852;BME280;48553;50.766;2.900;2024-02-26T02:37:43;98628.44;;;6.14;100.00
60852;BME280;48553;50.766;2.900;2024-02-26T02:40:43;98633.13;;;6.14;100.00
60852;BME280;48553;50.766;2.900;2024-02-26T02:43:44;98644.78;;;6.14;100.00
60852;BME280;48553;50.766;2.900;2024-02-26T02:46:44;98645.13;;;6.13;100.00
60852;BME280;48553;50.766;2.900;2024-02-26T02:49:45;98644.34;;;6.12;100.00
60852;BME280;48553;50.766;2.900;2024-02-26T02:52:45;98647.41;;;6.11;100.00
60852;BME280;48553;50.766;2.900;2024-02-26T02:55:46;98647.41;;;6.11;100.00
60852;BME280;48553;50.766;2.900;2024-02-26T02:58:46;98648.13;;;6.07;100.00
60852;BME280;48553;50.766;2.900;2024-02-26T03:01:47;98650.06;;;6.07;100.00
60852;BME280;48553;50.766;2.900;2024-02-26T03:04:47;98662.06;;;6.06;100.00
60852;BME280;48553;50.766;2.900;2024-02-26T03:07:48;98663.66;;;6.07;100.00
60852;BME280;48553;50.766;2.900;2024-02-26T03:10:48;98671.03;;;6.06;100.00
60852;BME280;48553;50.766;2.900;2024-02-26T03:13:48;98668.66;;;6.05;100.00
60852;BME280;48553;50.766;2.900;2024-02-26T03:16:49;98670.22;;;6.06;100.00
60852;BME280;48553;50.766;2.900;2024-02-26T03:19:49;98670.97;;;6.03;100.00
60852;BME280;48553;50.766;2.900;2024-02-26T03:22:53;98678.78;;;6.04;100.00
60852;BME280;48553;50.766;2.900;2024-02-26T03:25:53;98686.13;;;6.04;100.00
60852;BME280;48553;50.766;2.900;2024-02-26T03:28:56;98678.69;;;6.01;100.00
60852;BME280;48553;50.766;2.900;2024-02-26T03:31:56;98674.84;;;6.02;100.00
60852;BME280;48553;50.766;2.900;2024-02-26T03:34:56;98680.63;;;6.00;100.00
60852;BME280;48553;50.766;2.900;2024-02-26T03:37:57;98698.88;;;6.00;100.00
60852;BME280;48553;50.766;2.900;2024-02-26T03:40:57;98687.56;;;5.98;100.00
60852;BME280;48553;50.766;2.900;2024-02-26T03:43:58;98705.09;;;6.00;100.00
60852;BME280;48553;50.766;2.900;2024-02-26T03:46:59;98705.09;;;6.00;100.00
60852;BME280;48553;50.766;2.900;2024-02-26T03:49:59;98704.66;;;5.98;100.00
60852;BME280;48553;50.766;2.900;2024-02-26T03:53:00;98709.31;;;5.98;100.00
60852;BME280;48553;50.766;2.900;2024-02-26T03:56:03;98706.16;;;5.96;100.00
60852;BME280;48553;50.766;2.900;2024-02-26T03:59:04;98706.16;;;5.96;100.00
60852;BME280;48553;50.766;2.900;2024-02-26T04:02:04;98715.09;;;5.96;100.00
60852;BME280;48553;50.766;2.900;2024-02-26T04:05:09;98716.56;;;5.94;100.00
60852;BME280;48553;50.766;2.900;2024-02-26T04:08:10;98706.16;;;5.96;100.00
60852;BME280;48553;50.766;2.900;2024-02-26T04:11:11;98717.03;;;5.96;100.00
60852;BME280;48553;50.766;2.900;2024-02-26T04:14:11;98712.72;;;5.95;100.00
60852;BME280;48553;50.766;2.900;2024-02-26T04:17:12;98718.59;;;5.97;100.00
60852;BME280;48553;50.766;2.900;2024-02-26T04:20:14;98729.47;;;5.97;100.00
60852;BME280;48553;50.766;2.900;2024-02-26T04:23:15;98729.03;;;5.95;100.00
60852;BME280;48553;50.766;2.900;2024-02-26T04:26:16;98730.16;;;5.94;100.00
60852;BME280;48553;50.766;2.900;2024-02-26T04:29:16;98734.47;;;5.95;100.00
60852;BME280;48553;50.766;2.900;2024-02-26T04:32:17;98734.47;;;5.95;100.00
60852;BME280;48553;50.766;2.900;2024-02-26T04:35:17;98743.06;;;5.97;100.00
60852;BME280;48553;50.766;2.900;2024-02-26T04:38:18;98750.00;;;5.94;100.00
60852;BME280;48553;50.766;2.900;2024-02-26T04:41:18;98749.66;;;5.96;100.00
60852;BME280;48553;50.766;2.900;2024-02-26T04:44:18;98761.66;;;5.95;100.00
60852;BME280;48553;50.766;2.900;2024-02-26T04:47:19;98761.66;;;5.95;100.00
60852;BME280;48553;50.766;2.900;2024-02-26T04:50:19;98765.06;;;5.92;100.00
60852;BME280;48553;50.766;2.900;2024-02-26T04:53:20;98766.66;;;5.93;100.00
60852;BME280;48553;50.766;2.900;2024-02-26T04:56:21;98772.88;;;5.93;100.00
60852;BME280;48553;50.766;2.900;2024-02-26T04:59:22;98771.66;;;5.91;100.00
60852;BME280;48553;50.766;2.900;2024-02-26T05:02:22;98780.25;;;5.93;100.00
60852;BME280;48553;50.766;2.900;2024-02-26T05:05:23;98787.97;;;5.91;100.00
60852;BME280;48553;50.766;2.900;2024-02-26T05:08:23;98799.97;;;5.90;100.00
60852;BME280;48553;50.766;2.900;2024-02-26T05:11:24;98805.06;;;5.91;100.00
60852;BME280;48553;50.766;2.900;2024-02-26T05:14:24;98814.00;;;5.92;100.00
60852;BME280;48553;50.766;2.900;2024-02-26T05:17:25;98830.66;;;5.90;100.00
60852;BME280;48553;50.766;2.900;2024-02-26T05:20:25;98832.25;;;5.91;100.00
60852;BME280;48553;50.766;2.900;2024-02-26T05:23:26;98827.94;;;5.90;100.00
60852;BME280;48553;50.766;2.900;2024-02-26T05:26:26;98834.19;;;5.91;100.00
60852;BME280;48553;50.766;2.900;2024-02-26T05:29:27;98846.19;;;5.90;100.00
60852;BME280;48553;50.766;2.900;2024-02-26T05:32:27;98855.50;;;5.89;100.00
60852;BME280;48553;50.766;2.900;2024-02-26T05:35:28;98854.34;;;5.90;100.00
60852;BME280;48553;50.766;2.900;2024-02-26T05:38:28;98863.28;;;5.90;100.00
60852;BME280;48553;50.766;2.900;2024-02-26T05:41:28;98873.81;;;5.92;100.00
60852;BME280;48553;50.766;2.900;2024-02-26T05:44:29;98881.19;;;5.91;100.00
60852;BME280;48553;50.766;2.900;2024-02-26T05:47:29;98881.53;;;5.90;100.00
60852;BME280;48553;50.766;2.900;2024-02-26T05:50:30;98892.41;;;5.90;100.00
60852;BME280;48553;50.766;2.900;2024-02-26T05:53:30;98884.25;;;5.90;100.00
60852;BME280;48553;50.766;2.900;2024-02-26T05:56:31;98900.56;;;5.90;100.00
60852;BME280;48553;50.766;2.900;2024-02-26T05:59:31;98903.28;;;5.90;100.00
60852;BME280;48553;50.766;2.900;2024-02-26T06:02:32;98901.34;;;5.90;100.00
60852;BME280;48553;50.766;2.900;2024-02-26T06:05:32;98919.59;;;5.90;100.00
60852;BME280;48553;50.766;2.900;2024-02-26T06:08:32;98923.00;;;5.86;100.00
60852;BME280;48553;50.766;2.900;2024-02-26T06:11:33;98936.25;;;5.88;100.00
60852;BME280;48553;50.766;2.900;2024-02-26T06:14:33;98928.44;;;5.86;100.00
60852;BME280;48553;50.766;2.900;2024-02-26T06:17:34;98937.38;;;5.87;100.00
60852;BME280;48553;50.766;2.900;2024-02-26T06:20:34;98954.03;;;5.85;100.00
60852;BME280;48553;50.766;2.900;2024-02-26T06:23:35;98946.69;;;5.86;100.00
60852;BME280;48553;50.766;2.900;2024-02-26T06:26:35;98955.97;;;5.85;100.00
60852;BME280;48553;50.766;2.900;2024-02-26T06:29:36;98956.31;;;5.83;100.00
60852;BME280;48553;50.766;2.900;2024-02-26T06:32:37;98965.28;;;5.84;100.00
60852;BME280;48553;50.766;2.900;2024-02-26T06:35:37;98964.91;;;5.85;100.00
60852;BME280;48553;50.766;2.900;2024-02-26T06:38:38;98976.94;;;5.84;100.00
60852;BME280;48553;50.766;2.900;2024-02-26T06:41:38;98983.94;;;5.85;100.00
60852;BME280;48553;50.766;2.900;2024-02-26T06:44:39;98991.31;;;5.85;100.00
60852;BME280;48553;50.766;2.900;2024-02-26T06:47:40;98984.38;;;5.88;100.00
60852;BME280;48553;50.766;2.900;2024-02-26T06:50:40;99001.06;;;5.86;100.00
60852;BME280;48553;50.766;2.900;2024-02-26T06:53:41;99004.47;;;5.83;100.00
60852;BME280;48553;50.766;2.900;2024-02-26T06:56:42;99001.41;;;5.84;100.00
60852;BME280;48553;50.766;2.900;2024-02-26T06:59:42;99009.13;;;5.82;100.00
60852;BME280;48553;50.766;2.900;2024-02-26T07:02:46;99013.06;;;5.85;100.00
60852;BME280;48553;50.766;2.900;2024-02-26T07:05:46;99018.84;;;5.83;100.00
60852;BME280;48553;50.766;2.900;2024-02-26T07:08:47;99027.34;;;5.82;100.00
60852;BME280;48553;50.766;2.900;2024-02-26T07:11:47;99033.25;;;5.84;100.00
60852;BME280;48553;50.766;2.900;2024-02-26T07:14:48;99039.47;;;5.84;100.00
60852;BME280;48553;50.766;2.900;2024-02-26T07:17:49;99043.31;;;5.83;100.00
60852;BME280;48553;50.766;2.900;2024-02-26T07:20:49;99062.78;;;5.85;100.00
60852;BME280;48553;50.766;2.900;2024-02-26T07:23:50;99068.13;;;5.82;100.00
60852;BME280;48553;50.766;2.900;2024-02-26T07:26:51;99068.91;;;5.82;100.00
60852;BME280;48553;50.766;2.900;2024-02-26T07:29:52;99079.78;;;5.82;100.00
60852;BME280;48553;50.766;2.900;2024-02-26T07:32:52;99086.47;;;5.85;100.00
60852;BME280;48553;50.766;2.900;2024-02-26T07:35:52;99093.38;;;5.82;100.00
60852;BME280;48553;50.766;2.900;2024-02-26T07:38:53;99099.53;;;5.79;100.00
60852;BME280;48553;50.766;2.900;2024-02-26T07:41:54;99103.34;;;5.78;100.00
60852;BME280;48553;50.766;2.900;2024-02-26T07:44:55;99109.25;;;5.80;100.00
60852;BME280;48553;50.766;2.900;2024-02-26T07:47:55;99111.50;;;5.78;100.00
60852;BME280;48553;50.766;2.900;2024-02-26T07:50:56;99120.91;;;5.81;100.00
60852;BME280;48553;50.766;2.900;2024-02-26T07:53:56;99126.69;;;5.79;100.00
60852;BME280;48553;50.766;2.900;2024-02-26T07:56:57;99129.41;;;5.79;100.00
60852;BME280;48553;50.766;2.900;2024-02-26T07:59:57;99140.28;;;5.79;100.00
60852;BME280;48553;50.766;2.900;2024-02-26T08:02:58;99147.31;;;5.80;100.00
60852;BME280;48553;50.766;2.900;2024-02-26T08:05:58;99153.88;;;5.79;100.00
60852;BME280;48553;50.766;2.900;2024-02-26T08:08:59;99165.09;;;5.78;100.00
60852;BME280;48553;50.766;2.900;2024-02-26T08:11:59;99164.75;;;5.79;100.00
60852;BME280;48553;50.766;2.900;2024-02-26T08:14:59;99170.53;;;5.78;100.00
60852;BME280;48553;50.766;2.900;2024-02-26T08:18:01;99180.63;;;5.77;100.00
60852;BME280;48553;50.766;2.900;2024-02-26T08:21:04;99175.19;;;5.77;100.00
60852;BME280;48553;50.766;2.900;2024-02-26T08:24:05;99193.84;;;5.79;100.00
60852;BME280;48553;50.766;2.900;2024-02-26T08:27:05;99197.25;;;5.76;100.00
60852;BME280;48553;50.766;2.900;2024-02-26T08:30:07;99198.03;;;5.76;100.00
60852;BME280;48553;50.766;2.900;2024-02-26T08:33:07;99203.47;;;5.76;100.00
60852;BME280;48553;50.766;2.900;2024-02-26T08:36:08;99207.00;;;5.77;100.00
60852;BME280;48553;50.766;2.900;2024-02-26T08:39:08;99225.69;;;5.78;100.00
60852;BME280;48553;50.766;2.900;2024-02-26T08:42:09;99223.31;;;5.77;100.00
60852;BME280;48553;50.766;2.900;2024-02-26T08:45:09;99234.19;;;5.77;100.00
60852;BME280;48553;50.766;2.900;2024-02-26T08:48:10;99236.47;;;5.75;100.00
60852;BME280;48553;50.766;2.900;2024-02-26T08:51:10;99243.81;;;5.74;100.00
60852;BME280;48553;50.766;2.900;2024-02-26T08:54:11;99248.91;;;5.76;100.00
60852;BME280;48553;50.766;2.900;2024-02-26T08:57:12;99247.78;;;5.77;100.00
60852;BME280;48553;50.766;2.900;2024-02-26T09:00:12;99259.78;;;5.76;100.00
60852;BME280;48553;50.766;2.900;2024-02-26T09:03:14;99255.50;;;5.75;100.00
60852;BME280;48553;50.766;2.900;2024-02-26T09:06:15;99258.22;;;5.75;100.00
60852;BME280;48553;50.766;2.900;2024-02-26T09:09:15;99272.13;;;5.73;100.00
60852;BME280;48553;50.766;2.900;2024-02-26T09:12:16;99280.28;;;5.73;100.00
60852;BME280;48553;50.766;2.900;2024-02-26T09:15:16;99297.72;;;5.72;100.00
60852;BME280;48553;50.766;2.900;2024-02-26T09:18:17;99295.00;;;5.72;100.00
60852;BME280;48553;50.766;2.900;2024-02-26T09:21:17;99296.13;;;5.71;100.00
60852;BME280;48553;50.766;2.900;2024-02-26T09:24:23;99297.72;;;5.72;100.00
60852;BME280;48553;50.766;2.900;2024-02-26T09:27:24;99300.78;;;5.71;100.00
60852;BME280;48553;50.766;2.900;2024-02-26T09:30:25;99314.84;;;5.73;100.00
60852;BME280;48553;50.766;2.900;2024-02-26T09:33:25;99315.16;;;5.71;100.00
60852;BME280;48553;50.766;2.900;2024-02-26T09:36:25;99323.31;;;5.71;100.00
60852;BME280;48553;50.766;2.900;2024-02-26T09:39:26;99324.09;;;5.72;100.00
60852;BME280;48553;50.766;2.900;2024-02-26T09:42:29;99340.41;;;5.72;100.00
60852;BME280;48553;50.766;2.900;2024-02-26T09:45:32;99341.56;;;5.71;100.00
60852;BME280;48553;50.766;2.900;2024-02-26T09:48:34;99348.09;;;5.70;100.00
60852;BME280;48553;50.766;2.900;2024-02-26T09:51:35;99354.34;;;5.70;100.00
60852;BME280;48553;50.766;2.900;2024-02-26T09:54:36;99367.59;;;5.72;100.00
60852;BME280;48553;50.766;2.900;2024-02-26T09:57:42;99373.38;;;5.70;100.00
60852;BME280;48553;50.766;2.900;2024-02-26T10:00:50;99372.56;;;5.70;100.00
60852;BME280;48553;50.766;2.900;2024-02-26T10:03:56;99377.69;;;5.71;100.00
60852;BME280;48553;50.766;2.900;2024-02-26T10:06:57;99401.69;;;5.69;100.00
60852;BME280;48553;50.766;2.900;2024-02-26T10:10:00;99398.97;;;5.69;100.00
60852;BME280;48553;50.766;2.900;2024-02-26T10:13:01;99399.75;;;5.70;100.00
60852;BME280;48553;50.766;2.900;2024-02-26T10:16:04;99393.53;;;5.69;100.00
60852;BME280;48553;50.766;2.900;2024-02-26T10:19:06;99409.50;;;5.71;100.00
60852;BME280;48553;50.766;2.900;2024-02-26T10:22:06;99423.44;;;5.69;100.00
60852;BME280;48553;50.766;2.900;2024-02-26T10:25:07;99421.50;;;5.70;100.00
60852;BME280;48553;50.766;2.900;2024-02-26T10:28:09;99433.97;;;5.71;100.00
60852;BME280;48553;50.766;2.900;2024-02-26T10:31:10;99444.06;;;5.70;100.00
60852;BME280;48553;50.766;2.900;2024-02-26T10:34:11;99439.72;;;5.69;100.00
60852;BME280;48553;50.766;2.900;2024-02-26T10:37:11;99443.91;;;5.67;100.00
60852;BME280;48553;50.766;2.900;2024-02-26T10:40:13;99452.22;;;5.70;100.00
60852;BME280;48553;50.766;2.900;2024-02-26T10:43:13;99470.41;;;5.70;100.00
60852;BME280;48553;50.766;2.900;2024-02-26T10:46:15;99471.88;;;5.67;100.00
60852;BME280;48553;50.766;2.900;2024-02-26T10:49:16;99470.78;;;5.68;100.00
60852;BME280;48553;50.766;2.900;2024-02-26T10:52:20;99473.50;;;5.68;100.00
60852;BME280;48553;50.766;2.900;2024-02-26T10:55:22;99492.16;;;5.70;100.00
60852;BME280;48553;50.766;2.900;2024-02-26T10:58:25;99496.81;;;5.69;100.00
60852;BME280;48553;50.766;2.900;2024-02-26T11:01:27;99488.34;;;5.71;100.00
60852;BME280;48553;50.766;2.900;2024-02-26T11:04:30;99502.72;;;5.71;100.00
60852;BME280;48553;50.766;2.900;2024-02-26T11:07:31;99512.00;;;5.70;100.00
60852;BME280;48553;50.766;2.900;2024-02-26T11:10:32;99519.69;;;5.68;100.00
60852;BME280;48553;50.766;2.900;2024-02-26T11:13:33;99522.41;;;5.68;100.00
60852;BME280;48553;50.766;2.900;2024-02-26T11:16:35;99528.97;;;5.67;100.00
60852;BME280;48553;50.766;2.900;2024-02-26T11:19:36;99534.88;;;5.69;100.00
60852;BME280;48553;50.766;2.900;2024-02-26T11:22:38;99540.31;;;5.69;100.00
60852;BME280;48553;50.766;2.900;2024-02-26T11:25:39;99529.75;;;5.68;100.00
60852;BME280;48553;50.766;2.900;2024-02-26T11:28:40;99540.31;;;5.69;100.00
60852;BME280;48553;50.766;2.900;2024-02-26T11:31:41;99541.44;;;5.68;100.00
60852;BME280;48553;50.766;2.900;2024-02-26T11:34:42;99543.34;;;5.68;100.00
60852;BME280;48553;50.766;2.900;2024-02-26T11:37:52;99550.38;;;5.69;100.00
60852;BME280;48553;50.766;2.900;2024-02-26T11:40:53;99564.78;;;5.69;100.00
60852;BME280;48553;50.766;2.900;2024-02-26T11:44:03;99556.94;;;5.68;100.00
60852;BME280;48553;50.766;2.900;2024-02-26T11:47:21;99566.69;;;5.69;100.00
60852;BME280;48553;50.766;2.900;2024-02-26T11:50:36;99572.47;;;5.67;100.00
60852;BME280;48553;50.766;2.900;2024-02-26T11:53:45;99574.84;;;5.69;100.00
60852;BME280;48553;50.766;2.900;2024-02-26T11:56:46;99575.19;;;5.67;100.00
60852;BME280;48553;50.766;2.900;2024-02-26T11:59:47;99581.41;;;5.68;100.00
60852;BME280;48553;50.766;2.900;2024-02-26T12:02:52;99586.84;;;5.68;100.00
60852;BME280;48553;50.766;2.900;2024-02-26T12:05:58;99593.56;;;5.70;100.00
60852;BME280;48553;50.766;2.900;2024-02-26T12:08:58;99590.38;;;5.68;100.00
60852;BME280;48553;50.766;2.900;2024-02-26T12:12:00;99591.16;;;5.69;100.00
60852;BME280;48553;50.766;2.900;2024-02-26T12:15:01;99605.22;;;5.71;100.00
60852;BME280;48553;50.766;2.900;2024-02-26T12:18:03;99609.06;;;5.70;100.00
60852;BME280;48553;50.766;2.900;2024-02-26T12:21:04;99628.06;;;5.70;100.00
60852;BME280;48553;50.766;2.900;2024-02-26T12:24:10;99618.34;;;5.69;100.00
60852;BME280;48553;50.766;2.900;2024-02-26T12:27:12;99618.34;;;5.69;100.00
60852;BME280;48553;50.766;2.900;2024-02-26T12:30:12;99630.00;;;5.69;100.00
60852;BME280;48553;50.766;2.900;2024-02-26T12:33:13;99627.28;;;5.69;100.00
60852;BME280;48553;50.766;2.900;2024-02-26T12:36:13;99640.88;;;5.69;100.00
60852;BME280;48553;50.766;2.900;2024-02-26T12:39:14;99640.09;;;5.69;100.00
60852;BME280;48553;50.766;2.900;2024-02-26T12:42:14;99638.16;;;5.69;100.00
60852;BME280;48553;50.766;2.900;2024-02-26T12:45:15;99660.69;;;5.70;100.00
60852;BME280;48553;50.766;2.900;2024-02-26T12:48:16;99657.66;;;5.71;100.00
60852;BME280;48553;50.766;2.900;2024-02-26T12:51:17;99666.47;;;5.68;100.00
60852;BME280;48553;50.766;2.900;2024-02-26T12:54:18;99676.69;;;5.71;100.00
60852;BME280;48553;50.766;2.900;2024-02-26T12:57:19;99676.38;;;5.73;100.00
60852;BME280;48553;50.766;2.900;2024-02-26T13:00:22;99683.69;;;5.72;100.00
60852;BME280;48553;50.766;2.900;2024-02-26T13:03:24;99688.34;;;5.72;100.00
60852;BME280;48553;50.766;2.900;2024-02-26T13:06:25;99688.03;;;5.73;100.00
60852;BME280;48553;50.766;2.900;2024-02-26T13:09:26;99701.94;;;5.72;100.00
60852;BME280;48553;50.766;2.900;2024-02-26T13:12:27;99696.84;;;5.70;100.00
60852;BME280;48553;50.766;2.900;2024-02-26T13:15:27;99709.63;;;5.70;100.00
60852;BME280;48553;50.766;2.900;2024-02-26T13:18:28;99703.06;;;5.71;100.00
60852;BME280;48553;50.766;2.900;2024-02-26T13:21:32;99704.19;;;5.70;100.00
60852;BME280;48553;50.766;2.900;2024-02-26T13:24:34;99720.19;;;5.71;100.00
60852;BME280;48553;50.766;2.900;2024-02-26T13:27:34;99719.38;;;5.71;100.00
60852;BME280;48553;50.766;2.900;2024-02-26T13:30:35;99729.91;;;5.72;100.00
60852;BME280;48553;50.766;2.900;2024-02-26T13:33:36;99734.25;;;5.73;100.00
60852;BME280;48553;50.766;2.900;2024-02-26T13:36:36;99743.50;;;5.72;100.00
60852;BME280;48553;50.766;2.900;2024-02-26T13:39:38;99739.22;;;5.71;100.00
60852;BME280;48553;50.766;2.900;2024-02-26T13:42:38;99749.75;;;5.73;100.00
60852;BME280;48553;50.766;2.900;2024-02-26T13:45:39;99754.72;;;5.71;100.00
60852;BME280;48553;50.766;2.900;2024-02-26T13:48:40;99758.72;;;5.73;100.00
60852;BME280;48553;50.766;2.900;2024-02-26T13:51:41;99769.25;;;5.75;100.00
60852;BME280;48553;50.766;2.900;2024-02-26T13:54:42;99763.84;;;5.75;100.00
60852;BME280;48553;50.766;2.900;2024-02-26T13:57:42;99777.75;;;5.73;100.00
60852;BME280;48553;50.766;2.900;2024-02-26T14:00:43;99771.50;;;5.73;100.00
60852;BME280;48553;50.766;2.900;2024-02-26T14:03:43;99775.81;;;5.74;100.00
60852;BME280;48553;50.766;2.900;2024-02-26T14:06:44;99784.75;;;5.74;100.00
60852;BME280;48553;50.766;2.900;2024-02-26T14:09:44;99787.16;;;5.76;100.00
60852;BME280;48553;50.766;2.900;2024-02-26T14:12:45;99786.38;;;5.75;100.00
60852;BME280;48553;50.766;2.900;2024-02-26T14:15:46;99803.47;;;5.76;100.00
60852;BME280;48553;50.766;2.900;2024-02-26T14:18:46;99798.03;;;5.76;100.00
60852;BME280;48553;50.766;2.900;2024-02-26T14:21:47;99818.31;;;5.78;100.00
60852;BME280;48553;50.766;2.900;2024-02-26T14:24:47;99813.25;;;5.77;100.00
60852;BME280;48553;50.766;2.900;2024-02-26T14:27:48;99822.19;;;5.77;100.00
60852;BME280;48553;50.766;2.900;2024-02-26T14:30:48;99827.94;;;5.76;100.00
60852;BME280;48553;50.766;2.900;2024-02-26T14:33:49;99832.28;;;5.77;100.00
60852;BME280;48553;50.766;2.900;2024-02-26T14:36:53;99835.31;;;5.75;100.00
60852;BME280;48553;50.766;2.900;2024-02-26T14:39:53;99845.69;;;5.73;100.00
60852;BME280;48553;50.766;2.900;2024-02-26T14:42:53;99853.53;;;5.75;100.00
60852;BME280;48553;50.766;2.900;2024-02-26T14:45:54;99867.59;;;5.77;100.00
60852;BME280;48553;50.766;2.900;2024-02-26T14:48:54;99857.84;;;5.76;100.00
60852;BME280;48553;50.766;2.900;2024-02-26T14:51:55;99864.72;;;5.73;100.00
60852;BME280;48553;50.766;2.900;2024-02-26T14:54:56;99865.22;;;5.75;100.00
60852;BME280;48553;50.766;2.900;2024-02-26T14:57:57;99880.38;;;5.76;100.00
60852;BME280;48553;50.766;2.900;2024-02-26T15:00:57;99885.03;;;5.76;100.00
60852;BME280;48553;50.766;2.900;2024-02-26T15:03:58;99902.97;;;5.77;100.00
60852;BME280;48553;50.766;2.900;2024-02-26T15:06:59;99886.97;;;5.75;100.00
60852;BME280;48553;50.766;2.900;2024-02-26T15:10:00;99899.09;;;5.78;100.00
60852;BME280;48553;50.766;2.900;2024-02-26T15:13:01;99893.66;;;5.78;100.00
60852;BME280;48553;50.766;2.900;2024-02-26T15:16:01;99894.44;;;5.78;100.00
60852;BME280;48553;50.766;2.900;2024-02-26T15:19:02;99897.97;;;5.79;100.00
60852;BME280;48553;50.766;2.900;2024-02-26T15:22:03;99918.94;;;5.78;100.00
60852;BME280;48553;50.766;2.900;2024-02-26T15:25:04;99920.53;;;5.79;100.00
60852;BME280;48553;50.766;2.900;2024-02-26T15:28:05;99910.78;;;5.78;100.00
60852;BME280;48553;50.766;2.900;2024-02-26T15:31:06;99911.25;;;5.80;100.00
60852;BME280;48553;50.766;2.900;2024-02-26T15:34:08;99917.81;;;5.79;100.00
60852;BME280;48553;50.766;2.900;2024-02-26T15:37:08;99924.84;;;5.80;100.00
60852;BME280;48553;50.766;2.900;2024-02-26T15:40:09;99942.75;;;5.81;100.00
60852;BME280;48553;50.766;2.900;2024-02-26T15:43:10;99943.56;;;5.82;100.00
60852;BME280;48553;50.766;2.900;2024-02-26T15:46:11;99944.03;;;5.84;100.00
60852;BME280;48553;50.766;2.900;2024-02-26T15:49:11;99959.06;;;5.81;100.00
60852;BME280;48553;50.766;2.900;2024-02-26T15:52:11;99957.94;;;5.82;100.00
60852;BME280;48553;50.766;2.900;2024-02-26T15:55:12;99962.09;;;5.80;100.00
60852;BME280;48553;50.766;2.900;2024-02-26T15:58:13;99969.13;;;5.81;100.00